Time;durP1;ratioP1;P1;durP2;ratioP2;P2;SDS_P1;SDS_P2;PMS_P1;PMS_P2;Temp;Humidity;BMP_temperature;BMP_pressure;BME280_temperature;BME280_humidity;BME280_pressure;Samples;Min_cycle;Max_cycle;Signal;HPM_P1;HPM_P2
2021/12/29 00:02:14;;;;;;;5.22;1.02;;;;;;;;;;5033846;28;20046;-48
2021/12/29 00:04:41;;;;;;;1.45;0.70;;;;;;;;;;5033930;28;20083;-50
2021/12/29 00:07:10;;;;;;;2.30;0.65;;;;;;;;;;5033994;28;20014;-49
2021/12/29 00:09:37;;;;;;;1.55;0.60;;;;;;;;;;5034081;28;20042;-48
2021/12/29 00:12:03;;;;;;;2.17;0.80;;;;;;;;;;5033837;28;20077;-47
2021/12/29 00:14:29;;;;;;;2.78;0.57;;;;;;;;;;5033846;28;20029;-48
2021/12/29 00:16:58;;;;;;;1.90;0.50;;;;;;;;;;5033848;28;20025;-50
2021/12/29 00:19:24;;;;;;;1.90;0.70;;;;;;;;;;5034034;28;20029;-48
2021/12/29 00:21:50;;;;;;;1.38;0.50;;;;;;;;;;5033604;28;20534;-50
2021/12/29 00:24:16;;;;;;;1.60;0.47;;;;;;;;;;5033544;28;20036;-53
2021/12/29 00:26:42;;;;;;;1.23;0.55;;;;;;;;;;5032589;28;20408;-51
2021/12/29 00:29:07;;;;;;;1.15;0.50;;;;;;;;;;5033316;28;20426;-50
2021/12/29 00:31:34;;;;;;;2.15;0.60;;;;;;;;;;5033643;28;20025;-50
2021/12/29 00:34:00;;;;;;;2.08;0.50;;;;;;;;;;5033669;28;20049;-52
2021/12/29 00:36:26;;;;;;;2.58;0.50;;;16.20;81.70;;;;;;5033551;28;20030;-50
2021/12/29 00:38:53;;;;;;;1.73;0.70;;;16.10;81.00;;;;;;5033346;28;20029;-50
2021/12/29 00:41:19;;;;;;;2.78;0.73;;;;;;;;;;5033382;28;20029;-50
2021/12/29 00:43:45;;;;;;;1.33;0.65;;;;;;;;;;5033322;28;20032;-49
2021/12/29 00:46:13;;;;;;;1.70;0.60;;;16.00;79.20;;;;;;5033143;28;20645;-49
2021/12/29 00:48:42;;;;;;;2.17;0.60;;;16.10;82.40;;;;;;5033365;28;20425;-50
2021/12/29 00:51:09;;;;;;;1.95;0.40;;;16.10;80.90;;;;;;5033206;28;20074;-50
2021/12/29 00:53:35;;;;;;;2.45;0.60;;;;;;;;;;5033227;28;20029;-50
2021/12/29 00:56:02;;;;;;;3.38;0.90;;;;;;;;;;5033077;28;20064;-50
2021/12/29 00:58:29;;;;;;;2.67;0.70;;;;;;;;;;5032898;28;20037;-51
2021/12/29 01:00:55;;;;;;;0.98;0.60;;;;;;;;;;5033178;28;20036;-49
2021/12/29 01:03:21;;;;;;;1.95;0.52;;;;;;;;;;5032762;28;20053;-49
2021/12/29 01:05:47;;;;;;;1.15;0.45;;;;;;;;;;5032882;28;20052;-50
2021/12/29 01:08:13;;;;;;;1.98;0.60;;;;;;;;;;5032762;28;20057;-49
2021/12/29 01:10:41;;;;;;;1.33;0.60;;;16.00;81.30;;;;;;5032855;28;20029;-50
2021/12/29 01:13:09;;;;;;;1.42;0.50;;;;;;;;;;5033119;28;20030;-49
2021/12/29 01:15:55;;;;;;;1.17;0.47;;;16.00;82.70;;;;;;5032796;28;20025;-51
2021/12/29 01:18:21;;;;;;;1.83;0.40;;;;;;;;;;5032888;28;20022;-49
2021/12/29 01:20:48;;;;;;;2.10;0.40;;;;;;;;;;5032903;28;20132;-52
2021/12/29 01:23:14;;;;;;;2.33;0.50;;;;;;;;;;5032749;28;20053;-53
2021/12/29 01:25:40;;;;;;;0.65;0.40;;;;;;;;;;5032603;28;20043;-50
2021/12/29 01:28:06;;;;;;;1.20;0.57;;;;;;;;;;5032797;28;20033;-51
2021/12/29 01:30:32;;;;;;;1.35;0.50;;;;;;;;;;5032580;28;20037;-50
2021/12/29 01:33:05;;;;;;;2.10;0.50;;;16.00;82.80;;;;;;5032450;28;20048;-50
2021/12/29 01:35:31;;;;;;;1.02;0.55;;;;;;;;;;5032690;28;20080;-49
2021/12/29 01:37:57;;;;;;;2.17;0.52;;;;;;;;;;5032194;28;20025;-49
2021/12/29 01:40:23;;;;;;;1.75;1.23;;;;;;;;;;5032576;28;20034;-49
2021/12/29 01:42:49;;;;;;;1.80;0.40;;;;;;;;;;5032186;28;20479;-49
2021/12/29 01:45:15;;;;;;;2.03;0.60;;;;;;;;;;5032278;28;20055;-50
2021/12/29 01:47:41;;;;;;;0.85;0.50;;;;;;;;;;5032366;28;20040;-51
2021/12/29 01:50:09;;;;;;;2.50;0.95;;;;;;;;;;5032223;28;20041;-51
2021/12/29 01:52:38;;;;;;;1.42;0.50;;;;;;;;;;5032145;28;20476;-50
2021/12/29 01:55:07;;;;;;;0.98;0.20;;;15.90;82.90;;;;;;5032229;28;20108;-51
2021/12/29 01:57:33;;;;;;;1.42;0.68;;;;;;;;;;5032115;28;20125;-49
2021/12/29 02:00:00;;;;;;;1.15;0.40;;;15.90;82.90;;;;;;5032147;28;20032;-51
2021/12/29 02:02:26;;;;;;;1.95;0.65;;;;;;;;;;5031910;28;20136;-50
2021/12/29 02:04:52;;;;;;;1.48;0.57;;;;;;;;;;5032093;28;20068;-50
2021/12/29 02:07:18;;;;;;;0.93;0.43;;;;;;;;;;5032452;28;20492;-50
2021/12/29 02:09:44;;;;;;;1.30;0.43;;;;;;;;;;5032204;28;20287;-51
2021/12/29 02:12:10;;;;;;;0.90;0.45;;;;;;;;;;5031971;28;20056;-50
2021/12/29 02:14:36;;;;;;;0.65;0.28;;;;;;;;;;5031954;28;20038;-50
2021/12/29 02:17:02;;;;;;;1.83;0.60;;;;;;;;;;5032162;28;20379;-49
2021/12/29 02:19:28;;;;;;;1.25;0.60;;;;;;;;;;5031892;28;20025;-50
2021/12/29 02:22:07;;;;;;;0.93;0.45;;;;;;;;;;5031883;28;20029;-50
2021/12/29 02:24:38;;;;;;;0.70;0.32;;;;;;;;;;5031933;28;20041;-50
2021/12/29 02:27:06;;;;;;;1.25;0.50;;;15.80;83.10;;;;;;5032208;28;20052;-50
2021/12/29 02:29:33;;;;;;;1.42;0.30;;;15.80;80.00;;;;;;5031774;28;20069;-50
2021/12/29 02:31:59;;;;;;;1.15;0.45;;;;;;;;;;5031915;28;20028;-50
2021/12/29 02:34:25;;;;;;;1.83;0.60;;;;;;;;;;5031815;28;20076;-51
2021/12/29 02:36:51;;;;;;;1.40;0.57;;;;;;;;;;5032045;28;20018;-50
2021/12/29 02:39:20;;;;;;;1.83;0.70;;;15.80;82.90;;;;;;5031747;28;20034;-50
2021/12/29 02:41:53;;;;;;;0.63;0.20;;;15.80;83.20;;;;;;5031934;28;20014;-48
2021/12/29 02:44:29;;;;;;;1.30;0.52;;;15.80;83.10;;;;;;5031870;28;20033;-49
2021/12/29 02:46:57;;;;;;;0.80;0.40;;;15.80;83.10;;;;;;5031926;28;20037;-50
2021/12/29 02:49:25;;;;;;;2.10;0.63;;;15.80;83.10;;;;;;5031672;28;20037;-47
2021/12/29 02:51:52;;;;;;;1.05;0.50;;;;;;;;;;5035387;28;20514;-48
2021/12/29 02:54:18;;;;;;;1.23;0.60;;;;;;;;;;5035255;28;20033;-49
2021/12/29 02:56:47;;;;;;;1.42;0.52;;;15.90;83.10;;;;;;5035237;28;20029;-49
2021/12/29 02:59:13;;;;;;;0.93;0.40;;;;;;;;;;5035253;28;20025;-48
2021/12/29 03:01:39;;;;;;;0.90;0.30;;;;;;;;;;5035110;28;20147;-48
2021/12/29 03:04:06;;;;;;;0.90;0.30;;;15.80;82.80;;;;;;5035140;28;20025;-48
2021/12/29 03:06:32;;;;;;;0.70;0.30;;;;;;;;;;5035273;28;20022;-49
2021/12/29 03:08:58;;;;;;;1.33;0.40;;;;;;;;;;5035016;28;20549;-48
2021/12/29 03:11:24;;;;;;;1.17;0.50;;;;;;;;;;5035044;28;20021;-48
2021/12/29 03:13:50;;;;;;;1.27;0.50;;;;;;;;;;5034788;28;20508;-49
2021/12/29 03:16:17;;;;;;;0.90;0.30;;;;;;;;;;5034929;28;20502;-49
2021/12/29 03:18:43;;;;;;;0.68;0.50;;;;;;;;;;5034738;28;20061;-48
2021/12/29 03:21:12;;;;;;;0.80;0.50;;;15.70;83.50;;;;;;5034969;28;20031;-50
2021/12/29 03:23:38;;;;;;;3.00;0.50;;;15.70;83.20;;;;;;5034790;28;20188;-48
2021/12/29 03:26:06;;;;;;;2.25;0.40;;;;;;;;;;5034797;28;20029;-48
2021/12/29 03:28:32;;;;;;;2.45;0.50;;;;;;;;;;5034890;28;20198;-50
2021/12/29 03:30:58;;;;;;;1.77;0.50;;;;;;;;;;5034715;28;20025;-49
2021/12/29 03:33:26;;;;;;;1.95;0.50;;;15.70;83.20;;;;;;5034627;28;20017;-50
2021/12/29 03:35:55;;;;;;;1.60;0.57;;;15.60;83.20;;;;;;5035149;28;20380;-48
2021/12/29 03:38:23;;;;;;;1.55;0.40;;;15.70;83.20;;;;;;5034640;28;20017;-50
2021/12/29 03:40:50;;;;;;;1.05;0.40;;;;;;;;;;5034515;28;20033;-51
2021/12/29 03:43:16;;;;;;;1.08;0.50;;;;;;;;;;5034688;28;20105;-51
2021/12/29 03:45:44;;;;;;;1.38;0.55;;;15.60;83.60;;;;;;5034331;28;20527;-50
2021/12/29 03:48:11;;;;;;;0.50;0.32;;;15.60;83.00;;;;;;5034286;28;20025;-49
2021/12/29 03:50:38;;;;;;;2.03;0.70;;;15.60;80.10;;;;;;5034195;28;20060;-51
2021/12/29 03:53:04;;;;;;;2.80;1.15;;;;;;;;;;5034236;28;20048;-52
2021/12/29 03:55:30;;;;;;;2.20;0.70;;;;;;;;;;5034220;28;20040;-50
2021/12/29 03:57:56;;;;;;;0.75;0.50;;;;;;;;;;5034163;28;20036;-52
2021/12/29 04:00:23;;;;;;;1.27;0.50;;;15.60;83.20;;;;;;5034089;28;20502;-48
2021/12/29 04:02:49;;;;;;;1.65;0.60;;;;;;;;;;5033798;28;20053;-52
2021/12/29 04:05:18;;;;;;;0.50;0.40;;;15.40;83.50;;;;;;5034294;28;20414;-51
2021/12/29 04:07:44;;;;;;;1.30;0.50;;;;;;;;;;5034000;28;20026;-50
2021/12/29 04:10:11;;;;;;;1.77;0.60;;;;;;;;;;5033798;28;20041;-50
2021/12/29 04:12:41;;;;;;;1.77;0.63;;;15.60;83.00;;;;;;5033849;28;20071;-49
2021/12/29 04:15:09;;;;;;;1.63;0.45;;;15.50;83.60;;;;;;5034236;28;20064;-50
2021/12/29 04:17:38;;;;;;;1.25;0.50;;;;;;;;;;5033875;28;20096;-50
2021/12/29 04:22:49;;;;;;;1.50;0.50;;;;;;;;;;5033614;28;20075;-49
2021/12/29 04:25:16;;;;;;;1.88;0.60;;;;;;;;;;5033516;28;20052;-50
2021/12/29 04:27:42;;;;;;;1.10;0.52;;;;;;;;;;5033633;28;20388;-49
2021/12/29 04:30:08;;;;;;;2.10;0.50;;;;;;;;;;5033351;28;20041;-50
2021/12/29 04:32:34;;;;;;;2.13;0.40;;;;;;;;;;5033766;28;20416;-50
2021/12/29 04:35:00;;;;;;;0.70;0.50;;;;;;;;;;5033435;28;20034;-48
2021/12/29 04:37:25;;;;;;;1.10;0.75;;;;;;;;;;5033311;28;20566;-47
2021/12/29 04:39:51;;;;;;;0.75;0.52;;;;;;;;;;5033236;28;20037;-49
2021/12/29 04:42:17;;;;;;;1.98;0.60;;;;;;;;;;5033537;28;20032;-48
2021/12/29 04:44:43;;;;;;;1.45;0.57;;;;;;;;;;5033188;28;20053;-48
2021/12/29 04:47:12;;;;;;;1.65;0.47;;;;;;;;;;5033153;28;20396;-50
2021/12/29 04:49:42;;;;;;;1.52;0.50;;;;;;;;;;5033033;28;20091;-51
2021/12/29 04:52:10;;;;;;;1.35;0.55;;;15.70;83.90;;;;;;5033246;28;20052;-49
2021/12/29 04:54:37;;;;;;;2.00;0.60;;;;;;;;;;5033151;28;20029;-49
2021/12/29 04:57:03;;;;;;;1.05;0.40;;;;;;;;;;5032922;28;20033;-48
2021/12/29 04:59:29;;;;;;;1.23;0.50;;;;;;;;;;5033027;28;20040;-49
2021/12/29 05:01:55;;;;;;;0.80;0.52;;;;;;;;;;5032689;28;20037;-49
2021/12/29 05:04:29;;;;;;;1.52;0.45;;;;;;;;;;5032950;28;20025;-49
2021/12/29 05:09:40;;;;;;;1.13;0.60;;;;;;;;;;5032948;28;20063;-49
2021/12/29 05:12:07;;;;;;;1.17;0.65;;;15.50;83.50;;;;;;5032582;28;20056;-51
2021/12/29 05:14:33;;;;;;;1.15;0.40;;;;;;;;;;5032506;28;20033;-50
2021/12/29 05:16:59;;;;;;;0.90;0.80;;;;;;;;;;5032682;28;20025;-48
2021/12/29 05:19:25;;;;;;;1.35;0.70;;;;;;;;;;5032661;28;20033;-51
2021/12/29 05:21:51;;;;;;;1.05;0.65;;;;;;;;;;5032630;28;20033;-50
2021/12/29 05:24:17;;;;;;;1.42;0.60;;;;;;;;;;5032488;28;20030;-49
2021/12/29 05:26:43;;;;;;;1.80;0.60;;;;;;;;;;5032409;28;20030;-49
2021/12/29 05:29:10;;;;;;;1.73;0.65;;;;;;;;;;5032509;28;20022;-49
2021/12/29 05:31:35;;;;;;;2.47;0.50;;;;;;;;;;5032501;28;20092;-50
2021/12/29 05:34:01;;;;;;;1.58;0.50;;;;;;;;;;5032373;28;20464;-50
2021/12/29 05:36:28;;;;;;;0.75;0.60;;;;;;;;;;5032374;28;20075;-49
2021/12/29 05:38:55;;;;;;;1.58;0.50;;;;;;;;;;5032325;28;20108;-51
2021/12/29 05:41:21;;;;;;;1.50;0.60;;;;;;;;;;5032340;28;20522;-49
2021/12/29 05:43:47;;;;;;;1.88;0.70;;;;;;;;;;5032325;28;20092;-50
2021/12/29 05:46:13;;;;;;;2.83;0.73;;;;;;;;;;5032286;28;20035;-50
2021/12/29 05:48:39;;;;;;;1.40;0.60;;;;;;;;;;5032387;28;20025;-50
2021/12/29 05:51:05;;;;;;;2.25;0.50;;;;;;;;;;5014447;28;20639;-50
2021/12/29 05:53:31;;;;;;;2.45;0.88;;;;;;;;;;5032109;28;20105;-50
2021/12/29 05:55:57;;;;;;;1.38;0.50;;;;;;;;;;5032045;28;20101;-49
2021/12/29 05:58:23;;;;;;;1.92;0.50;;;;;;;;;;5032039;28;20369;-49
2021/12/29 06:00:49;;;;;;;2.00;0.60;;;;;;;;;;5032046;28;20033;-50
2021/12/29 06:03:16;;;;;;;1.10;0.50;;;;;;;;;;5031813;28;20052;-49
2021/12/29 06:05:42;;;;;;;2.85;1.17;;;;;;;;;;5032337;28;20029;-49
2021/12/29 06:08:08;;;;;;;1.70;0.70;;;;;;;;;;5032050;28;20030;-50
2021/12/29 06:10:34;;;;;;;1.98;0.52;;;;;;;;;;5031970;28;20120;-49
2021/12/29 06:13:00;;;;;;;0.68;0.40;;;;;;;;;;5032059;28;20053;-50
2021/12/29 06:15:26;;;;;;;1.33;0.40;;;;;;;;;;5032048;28;20104;-49
2021/12/29 06:17:52;;;;;;;1.02;0.55;;;;;;;;;;5031917;28;20468;-49
2021/12/29 06:20:19;;;;;;;1.10;0.50;;;;;;;;;;5031868;28;20171;-49
2021/12/29 06:22:45;;;;;;;2.80;0.65;;;;;;;;;;5031863;28;20030;-49
2021/12/29 06:25:13;;;;;;;0.90;0.55;;;15.30;84.30;;;;;;5033327;28;20039;-53
2021/12/29 06:27:39;;;;;;;0.88;0.70;;;;;;;;;;5036146;28;20030;-51
2021/12/29 06:30:09;;;;;;;1.58;0.50;;;15.50;84.50;;;;;;5035627;28;20042;-49
2021/12/29 06:32:35;;;;;;;0.98;0.28;;;;;;;;;;5035750;28;20032;-50
2021/12/29 06:35:01;;;;;;;3.13;0.80;;;;;;;;;;5035609;28;20082;-50
2021/12/29 06:37:27;;;;;;;1.52;0.60;;;;;;;;;;5035941;28;20108;-50
2021/12/29 06:39:53;;;;;;;0.60;0.50;;;;;;;;;;5035613;28;20030;-50
2021/12/29 06:42:19;;;;;;;2.00;0.80;;;14.80;81.20;;;;;;5035577;28;20468;-48
2021/12/29 06:44:46;;;;;;;1.80;0.50;;;15.30;84.00;;;;;;5035473;28;20030;-48
2021/12/29 06:47:13;;;;;;;1.27;0.68;;;;;;;;;;5035465;28;20037;-48
2021/12/29 06:49:39;;;;;;;2.22;0.93;;;;;;;;;;5035352;28;20057;-48
2021/12/29 06:52:06;;;;;;;1.25;0.60;;;15.30;83.70;;;;;;5035480;28;20480;-48
2021/12/29 06:54:32;;;;;;;1.40;0.60;;;15.30;83.30;;;;;;5035357;28;20037;-48
2021/12/29 06:56:59;;;;;;;2.38;0.70;;;;;;;;;;5035332;28;20041;-49
2021/12/29 06:59:25;;;;;;;1.10;0.60;;;;;;;;;;5035223;28;20112;-48
2021/12/29 07:01:51;;;;;;;1.67;0.80;;;;;;;;;;5034971;28;20564;-52
2021/12/29 07:04:17;;;;;;;2.25;0.50;;;;;;;;;;5035223;28;20029;-52
2021/12/29 07:06:43;;;;;;;1.48;0.50;;;;;;;;;;5035165;28;20495;-48
2021/12/29 07:09:09;;;;;;;3.22;0.60;;;;;;;;;;5035327;28;20033;-49
2021/12/29 07:11:36;;;;;;;2.92;0.82;;;;;;;;;;5035010;28;20029;-49
2021/12/29 07:14:03;;;;;;;4.07;0.88;;;;;;;;;;5034885;28;20522;-49
2021/12/29 07:16:30;;;;;;;3.53;0.55;;;;;;;;;;5034897;28;20029;-50
2021/12/29 07:18:56;;;;;;;2.75;0.70;;;;;;;;;;5034866;28;20059;-48
2021/12/29 07:21:22;;;;;;;1.30;0.32;;;;;;;;;;5034955;28;20029;-47
2021/12/29 07:23:48;;;;;;;1.40;0.35;;;;;;;;;;5035111;28;20045;-49
2021/12/29 07:26:14;;;;;;;1.08;0.50;;;;;;;;;;5034882;28;20037;-48
2021/12/29 07:28:40;;;;;;;2.08;0.57;;;;;;;;;;5034714;28;20046;-48
2021/12/29 07:31:06;;;;;;;2.97;0.63;;;;;;;;;;5034847;28;20518;-49
2021/12/29 07:33:33;;;;;;;1.80;0.55;;;;;;;;;;5034537;28;20104;-49
2021/12/29 07:35:59;;;;;;;3.30;1.17;;;;;;;;;;5034509;28;20045;-49
2021/12/29 07:38:25;;;;;;;1.85;0.50;;;;;;;;;;5034697;28;20048;-49
2021/12/29 07:40:51;;;;;;;2.33;0.82;;;;;;;;;;5034554;28;20475;-51
2021/12/29 07:43:18;;;;;;;3.65;0.80;;;;;;;;;;5034546;28;20116;-52
2021/12/29 07:45:44;;;;;;;3.30;0.80;;;;;;;;;;5034551;28;20025;-48
2021/12/29 07:48:10;;;;;;;4.57;1.15;;;;;;;;;;5034449;28;20029;-48
2021/12/29 07:50:37;;;;;;;1.98;0.68;;;15.50;83.70;;;;;;5016557;28;20531;-48
2021/12/29 07:53:03;;;;;;;2.85;0.90;;;15.40;82.70;;;;;;5034549;28;20026;-47
2021/12/29 07:55:30;;;;;;;2.25;1.10;;;;;;;;;;5034393;28;20033;-50
2021/12/29 07:57:56;;;;;;;2.53;1.20;;;15.50;81.90;;;;;;5016378;28;20480;-49
2021/12/29 08:00:22;;;;;;;3.22;1.02;;;;;;;;;;5034283;28;20029;-51
2021/12/29 08:02:50;;;;;;;5.68;1.27;;;15.50;84.60;;;;;;5033834;28;20061;-48
2021/12/29 08:05:16;;;;;;;2.95;1.00;;;;;;;;;;5033974;28;20128;-48
2021/12/29 08:07:42;;;;;;;3.45;1.10;;;;;;;;;;5033963;28;20030;-48
2021/12/29 08:10:08;;;;;;;2.55;1.20;;;;;;;;;;5034089;28;20045;-49
2021/12/29 08:12:34;;;;;;;3.15;1.25;;;;;;;;;;5033896;28;20021;-47
2021/12/29 08:15:00;;;;;;;3.95;1.10;;;;;;;;;;5033984;28;20041;-48
2021/12/29 08:17:26;;;;;;;3.95;1.48;;;;;;;;;;5033806;28;20491;-46
2021/12/29 08:19:53;;;;;;;6.57;1.58;;;;;;;;;;5033741;28;20082;-47
2021/12/29 08:22:19;;;;;;;5.15;2.03;;;;;;;;;;5033917;28;20025;-48
2021/12/29 08:24:45;;;;;;;7.50;3.15;;;;;;;;;;5033693;28;20491;-47
2021/12/29 08:27:11;;;;;;;5.70;2.70;;;;;;;;;;5033560;28;20071;-48
2021/12/29 08:29:37;;;;;;;6.90;2.58;;;;;;;;;;5033643;28;20044;-48
2021/12/29 08:32:04;;;;;;;5.70;2.65;;;15.50;81.40;;;;;;5033427;28;20041;-47
2021/12/29 08:34:30;;;;;;;5.95;2.65;;;;;;;;;;5033547;28;20033;-48
2021/12/29 08:36:56;;;;;;;6.40;2.45;;;;;;;;;;5033379;28;20034;-48
2021/12/29 08:39:23;;;;;;;6.32;3.45;;;;;;;;;;5033364;28;20049;-47
2021/12/29 08:41:49;;;;;;;7.13;2.58;;;15.60;82.70;;;;;;5033180;28;20055;-46
2021/12/29 08:44:15;;;;;;;5.03;2.58;;;;;;;;;;5033384;28;20045;-48
2021/12/29 08:46:41;;;;;;;9.45;2.60;;;;;;;;;;5033258;28;20025;-48
2021/12/29 08:49:07;;;;;;;7.03;2.83;;;;;;;;;;5032337;28;20063;-47
2021/12/29 08:51:34;;;;;;;11.20;3.45;;;;;;;;;;5033219;28;20034;-48
2021/12/29 08:54:00;;;;;;;8.02;2.67;;;;;;;;;;5033325;28;20109;-49
2021/12/29 08:56:26;;;;;;;8.35;2.38;;;15.70;84.70;;;;;;5033196;28;20044;-48
2021/12/29 08:58:53;;;;;;;11.23;2.67;;;15.70;82.70;;;;;;5033021;28;20079;-48
2021/12/29 09:01:21;;;;;;;7.40;2.88;;;15.70;85.30;;;;;;5032941;28;20037;-48
2021/12/29 09:03:48;;;;;;;7.32;2.40;;;;;;;;;;5032952;28;20061;-48
2021/12/29 09:06:14;;;;;;;10.77;2.80;;;;;;;;;;5033015;28;20095;-47
2021/12/29 09:08:40;;;;;;;13.45;2.97;;;;;;;;;;5032826;28;20029;-48
2021/12/29 09:11:07;;;;;;;6.93;2.53;;;;;;;;;;5032739;28;20034;-47
2021/12/29 09:13:33;;;;;;;9.52;2.45;;;;;;;;;;5031868;28;20047;-48
2021/12/29 09:15:59;;;;;;;7.85;2.47;;;;;;;;;;5031239;28;20100;-47
2021/12/29 09:18:26;;;;;;;8.88;2.47;;;15.50;85.50;;;;;;5032318;28;20030;-48
2021/12/29 09:20:53;;;;;;;8.23;1.95;;;15.60;85.50;;;;;;5030582;28;20037;-48
2021/12/29 09:23:19;;;;;;;5.57;2.42;;;;;;;;;;5032564;28;20025;-47
2021/12/29 09:25:46;;;;;;;8.05;2.28;;;15.60;85.50;;;;;;5032449;28;20083;-47
2021/12/29 09:28:15;;;;;;;6.90;2.40;;;15.60;85.10;;;;;;5032397;28;20049;-47
2021/12/29 09:30:43;;;;;;;7.63;2.75;;;15.70;85.00;;;;;;5032295;28;20055;-47
2021/12/29 09:33:10;;;;;;;5.68;2.17;;;15.60;81.80;;;;;;5032458;28;20365;-48
2021/12/29 09:35:37;;;;;;;3.72;2.00;;;;;;;;;;5031562;28;20029;-49
2021/12/29 09:38:04;;;;;;;9.00;2.45;;;15.70;85.20;;;;;;5030418;28;20423;-49
2021/12/29 09:40:30;;;;;;;6.28;2.50;;;;;;;;;;5030480;28;20017;-48
2021/12/29 09:42:56;;;;;;;6.88;2.25;;;;;;;;;;5030375;28;20033;-48
2021/12/29 09:45:22;;;;;;;3.55;1.65;;;;;;;;;;5030445;28;20079;-47
2021/12/29 09:47:49;;;;;;;3.65;2.00;;;;;;;;;;5030598;28;20036;-47
2021/12/29 09:50:17;;;;;;;3.25;1.92;;;15.70;84.60;;;;;;5031425;28;20029;-48
2021/12/29 09:52:43;;;;;;;4.25;1.90;;;;;;;;;;5032293;28;20492;-47
2021/12/29 09:55:12;;;;;;;6.85;2.25;;;15.70;84.90;;;;;;5032139;28;20039;-48
2021/12/29 09:57:45;;;;;;;3.60;1.45;;;15.80;84.90;;;;;;5032235;28;20022;-48
2021/12/29 10:00:25;;;;;;;5.18;1.45;;;15.70;84.80;;;;;;5032320;28;20430;-47
2021/12/29 10:02:52;;;;;;;4.25;2.03;;;;;;;;;;5031954;28;20050;-47
2021/12/29 10:05:18;;;;;;;5.90;1.95;;;;;;;;;;5032080;28;20033;-49
2021/12/29 10:07:44;;;;;;;6.57;2.03;;;;;;;;;;5032107;28;20026;-48
2021/12/29 10:10:20;;;;;;;5.68;1.63;;;15.60;78.40;;;;;;5031942;28;20084;-48
2021/12/29 10:12:47;;;;;;;4.13;1.80;;;;;;;;;;5032107;28;20055;-49
2021/12/29 10:15:13;;;;;;;4.78;2.00;;;;;;;;;;5031927;28;20507;-48
2021/12/29 10:17:39;;;;;;;5.00;1.50;;;;;;;;;;5031946;28;20028;-48
2021/12/29 10:20:08;;;;;;;5.18;1.80;;;15.70;84.00;;;;;;5032208;28;20425;-48
2021/12/29 10:22:34;;;;;;;5.35;1.75;;;;;;;;;;5032357;28;20426;-48
2021/12/29 10:25:12;;;;;;;5.90;1.75;;;15.80;77.80;;;;;;5032066;28;20029;-48
2021/12/29 10:27:38;;;;;;;5.00;1.70;;;;;;;;;;5032017;28;20029;-49
2021/12/29 10:30:26;;;;;;;3.50;1.88;;;15.70;83.70;;;;;;5031732;28;20088;-49
2021/12/29 10:32:55;;;;;;;5.20;2.10;;;;;;;;;;5031960;28;20022;-48
2021/12/29 10:35:29;;;;;;;3.38;1.48;;;15.70;77.90;;;;;;5032093;28;20396;-48
2021/12/29 10:38:14;;;;;;;2.78;1.40;;;15.50;83.70;;;;;;5031843;28;20029;-48
2021/12/29 10:40:40;;;;;;;3.60;1.65;;;;;;;;;;5031886;28;20072;-49
2021/12/29 10:43:06;;;;;;;2.83;1.40;;;;;;;;;;5031872;28;20092;-49
2021/12/29 10:45:38;;;;;;;3.25;1.60;;;15.90;84.10;;;;;;5031923;28;20053;-48
2021/12/29 10:48:20;;;;;;;4.95;2.05;;;15.60;84.00;;;;;;5031679;28;20036;-48
2021/12/29 10:50:57;;;;;;;4.28;1.77;;;15.60;78.10;;;;;;5031559;28;20032;-48
2021/12/29 10:53:23;;;;;;;3.72;1.83;;;;;;;;;;5031632;28;20029;-48
2021/12/29 10:55:50;;;;;;;3.15;1.65;;;15.50;83.90;;;;;;5031839;28;20391;-48
2021/12/29 10:58:22;;;;;;;3.92;1.40;;;15.50;83.90;;;;;;5031674;28;20021;-48
2021/12/29 11:00:55;;;;;;;6.95;2.05;;;15.60;83.80;;;;;;5031754;28;20168;-50
2021/12/29 11:03:23;;;;;;;5.53;1.80;;;15.60;84.00;;;;;;5031455;28;20048;-47
2021/12/29 11:05:58;;;;;;;3.55;1.50;;;15.50;84.00;;;;;;5031882;28;20357;-48
2021/12/29 11:08:44;;;;;;;5.85;1.95;;;15.50;83.50;;;;;;5031548;28;20021;-48
2021/12/29 11:11:10;;;;;;;4.30;1.60;;;;;;;;;;5032893;28;20068;-49
2021/12/29 11:13:36;;;;;;;4.90;1.48;;;;;;;;;;5034941;28;20049;-49
2021/12/29 11:16:04;;;;;;;2.13;1.58;;;15.50;84.20;;;;;;5035004;28;20471;-48
2021/12/29 11:18:44;;;;;;;3.03;1.40;;;15.40;78.10;;;;;;5035015;28;20018;-49
2021/12/29 11:21:10;;;;;;;;;;;15.50;79.00;;;;;;5017834;28;20387;-48
2021/12/29 11:23:41;;;;;;;2.60;1.48;;;;;;;;;;5034872;28;19912;-49
2021/12/29 11:26:11;;;;;;;3.20;1.67;;;15.40;84.10;;;;;;5035149;28;20026;-48
2021/12/29 11:28:38;;;;;;;3.60;1.50;;;15.30;84.60;;;;;;5034697;28;20080;-48
2021/12/29 11:31:06;;;;;;;3.65;1.60;;;15.40;84.60;;;;;;5034720;28;20040;-48
2021/12/29 11:33:33;;;;;;;3.67;1.40;;;15.40;84.50;;;;;;5034952;28;20109;-48
2021/12/29 11:35:59;;;;;;;2.75;1.52;;;;;;;;;;5034684;28;20033;-48
2021/12/29 11:38:25;;;;;;;4.68;1.77;;;;;;;;;;5034614;28;20033;-48
2021/12/29 11:40:54;;;;;;;3.15;1.45;;;15.30;84.60;;;;;;5034804;28;20104;-48
2021/12/29 11:43:20;;;;;;;3.35;1.45;;;;;;;;;;5034436;28;20068;-47
2021/12/29 11:45:49;;;;;;;2.50;1.17;;;15.40;84.30;;;;;;5034392;28;20041;-47
2021/12/29 11:48:17;;;;;;;2.92;1.42;;;15.40;82.70;;;;;;5034527;28;20026;-48
2021/12/29 11:50:52;;;;;;;4.03;1.20;;;15.40;78.60;;;;;;5034206;28;20045;-48
2021/12/29 11:53:32;;;;;;;3.88;1.42;;;15.40;78.30;;;;;;5034437;28;20026;-49
2021/12/29 11:56:08;;;;;;;3.40;1.48;;;15.40;78.10;;;;;;5034454;28;20029;-48
2021/12/29 11:58:41;;;;;;;3.85;1.30;;;15.40;78.10;;;;;;5034205;28;20519;-50
2021/12/29 12:01:12;;;;;;;3.50;1.77;;;15.40;84.10;;;;;;5034544;28;20029;-48
2021/12/29 12:04:00;;;;;;;2.72;1.15;;;15.30;84.10;;;;;;5033970;28;20064;-48
2021/12/29 12:06:26;;;;;;;2.63;1.27;;;;;;;;;;5034358;28;20116;-48
2021/12/29 12:09:10;;;;;;;3.13;1.25;;;15.30;78.70;;;;;;5034116;28;20540;-48
2021/12/29 12:11:38;;;;;;;3.78;1.27;;;15.30;84.60;;;;;;5034014;28;20145;-49
2021/12/29 12:14:15;;;;;;;3.95;1.27;;;15.40;84.30;;;;;;5034249;28;20052;-47
2021/12/29 12:16:49;;;;;;;1.20;0.88;;;15.30;78.70;;;;;;5033828;28;20026;-48
2021/12/29 12:19:21;;;;;;;1.73;1.10;;;15.30;78.40;;;;;;5033914;28;20033;-48
2021/12/29 12:21:47;;;;;;;2.88;1.48;;;;;;;;;;5033293;28;20033;-48
2021/12/29 12:24:22;;;;;;;3.85;1.42;;;15.30;78.30;;;;;;5033325;28;20033;-47
2021/12/29 12:27:03;;;;;;;2.47;1.20;;;15.30;78.30;;;;;;5033749;28;20099;-47
2021/12/29 12:29:36;;;;;;;1.98;1.17;;;15.30;78.30;;;;;;5033498;28;20052;-47
2021/12/29 12:32:02;;;;;;;2.35;1.23;;;;;;;;;;5033693;28;20036;-48
2021/12/29 12:34:28;;;;;;;3.30;1.15;;;;;;;;;;5033535;28;20038;-48
2021/12/29 12:36:54;;;;;;;2.30;1.33;;;;;;;;;;5033475;28;20025;-49
2021/12/29 12:39:21;;;;;;;1.48;0.93;;;;;;;;;;5033482;28;20021;-47
2021/12/29 12:41:49;;;;;;;1.55;1.10;;;15.30;84.10;;;;;;5033421;28;20025;-47
2021/12/29 12:44:19;;;;;;;3.05;1.55;;;15.30;84.50;;;;;;5033339;28;20060;-47
2021/12/29 12:46:50;;;;;;;2.72;1.25;;;15.20;84.30;;;;;;5033333;28;20040;-47
2021/12/29 12:49:25;;;;;;;2.83;1.08;;;15.20;78.40;;;;;;5033493;28;20091;-48
2021/12/29 12:51:58;;;;;;;3.88;1.58;;;15.30;78.50;;;;;;5033318;28;20036;-47
2021/12/29 12:54:27;;;;;;;3.22;1.45;;;15.20;84.30;;;;;;5033025;28;20029;-47
2021/12/29 12:56:55;;;;;;;3.55;1.25;;;15.20;84.50;;;;;;5033048;28;20033;-47
2021/12/29 12:59:21;;;;;;;3.30;1.20;;;;;;;;;;5033379;28;20021;-48
2021/12/29 13:01:52;;;;;;;2.60;1.27;;;15.30;84.30;;;;;;5032767;28;20029;-48
2021/12/29 13:04:18;;;;;;;2.92;1.30;;;;;;;;;;5033097;28;20022;-48
2021/12/29 13:06:51;;;;;;;3.42;1.13;;;15.40;84.00;;;;;;5033000;28;20491;-47
2021/12/29 13:09:19;;;;;;;3.42;1.08;;;;;;;;;;5033201;28;20051;-48
2021/12/29 13:11:45;;;;;;;3.42;1.40;;;;;;;;;;5033246;28;20026;-48
2021/12/29 13:14:11;;;;;;;1.58;0.82;;;;;;;;;;5032908;28;20064;-47
2021/12/29 13:16:38;;;;;;;3.00;1.10;;;16.00;82.20;;;;;;5033087;28;20025;-47
2021/12/29 13:19:04;;;;;;;2.85;1.02;;;;;;;;;;5032738;28;20033;-47
2021/12/29 13:21:33;;;;;;;1.88;1.17;;;16.20;81.80;;;;;;5032604;28;20036;-47
2021/12/29 13:24:02;;;;;;;4.05;1.10;;;16.30;81.50;;;;;;5032621;28;20030;-47
2021/12/29 13:26:32;;;;;;;1.67;0.95;;;16.40;81.40;;;;;;5032471;28;20026;-48
2021/12/29 13:28:58;;;;;;;3.53;1.15;;;;;;;;;;5032558;28;20029;-47
2021/12/29 13:31:25;;;;;;;1.95;0.93;;;;;;;;;;5032382;28;20108;-47
2021/12/29 13:33:53;;;;;;;3.25;0.98;;;16.70;80.80;;;;;;5032086;28;20038;-48
2021/12/29 13:36:21;;;;;;;1.88;0.90;;;16.80;77.60;;;;;;5032699;28;20021;-46
2021/12/29 13:38:47;;;;;;;2.72;0.90;;;16.80;78.30;;;;;;5032337;28;20599;-47
2021/12/29 13:41:13;;;;;;;2.35;1.10;;;;;;;;;;5032349;28;20030;-47
2021/12/29 13:43:43;;;;;;;2.55;1.23;;;16.90;80.50;;;;;;5032299;28;20033;-48
2021/12/29 13:46:15;;;;;;;1.80;0.87;;;16.90;74.70;;;;;;5032632;28;20387;-49
2021/12/29 13:48:44;;;;;;;2.47;0.80;;;16.80;80.60;;;;;;5032343;28;20033;-48
2021/12/29 13:51:23;;;;;;;1.10;0.70;;;16.90;80.70;;;;;;5032281;28;20074;-48
2021/12/29 13:53:49;;;;;;;3.28;1.50;;;;;;;;;;5032543;28;20029;-47
2021/12/29 13:56:20;;;;;;;2.15;0.82;;;17.10;80.70;;;;;;5032215;28;20502;-47
2021/12/29 13:59:00;;;;;;;2.50;1.08;;;17.10;74.60;;;;;;5032261;28;20025;-47
2021/12/29 14:01:29;;;;;;;1.63;1.00;;;17.10;80.70;;;;;;5031971;28;20028;-49
2021/12/29 14:03:54;;;;;;;1.55;0.80;;;;;;;;;;5032036;28;20026;-48
2021/12/29 14:06:20;;;;;;;1.48;1.00;;;;;;;;;;5032065;28;20387;-48
2021/12/29 14:08:47;;;;;;;2.42;1.13;;;;;;;;;;5032176;28;20079;-49